createdAt,value
2023-05-19T00:01:32.111Z,8.70
2023-05-19T00:04:02.837Z,8.64
2023-05-19T00:06:32.592Z,8.60
2023-05-19T00:09:03.069Z,8.66
2023-05-19T00:11:32.507Z,8.57
2023-05-19T00:14:01.378Z,8.54
2023-05-19T00:16:30.477Z,8.41
2023-05-19T00:19:00.173Z,8.65
2023-05-19T00:21:28.500Z,8.66
2023-05-19T00:23:56.548Z,8.51
2023-05-19T00:26:25.035Z,8.51
2023-05-19T00:28:54.362Z,8.55
2023-05-19T00:31:22.140Z,8.52
2023-05-19T00:33:49.928Z,8.61
2023-05-19T00:36:17.780Z,8.50
2023-05-19T00:38:45.498Z,8.57
2023-05-19T00:41:13.279Z,8.50
2023-05-19T00:43:41.084Z,8.44
2023-05-19T00:46:10.984Z,8.40
2023-05-19T00:48:38.789Z,8.40
2023-05-19T00:51:06.800Z,8.37
2023-05-19T00:53:35.688Z,8.34
2023-05-19T00:56:04.397Z,8.30
2023-05-19T00:58:32.821Z,8.28
2023-05-19T01:01:03.689Z,8.37
2023-05-19T01:03:35.220Z,8.41
2023-05-19T01:06:04.940Z,8.40
2023-05-19T01:08:33.325Z,8.31
2023-05-19T01:11:01.206Z,8.30
2023-05-19T01:13:29.274Z,8.19
2023-05-19T01:16:03.493Z,8.22
2023-05-19T01:18:40.605Z,8.24
2023-05-19T01:21:27.157Z,8.24
2023-05-19T01:24:02.785Z,8.24
2023-05-19T01:26:54.005Z,8.18
2023-05-19T01:29:32.326Z,8.21
2023-05-19T01:32:01.537Z,8.13
2023-05-19T01:34:29.265Z,8.22
2023-05-19T01:36:57.195Z,8.14
2023-05-19T01:39:25.434Z,8.18
2023-05-19T01:41:53.600Z,7.98
2023-05-19T01:44:22.188Z,8.00
2023-05-19T01:46:50.140Z,8.08
2023-05-19T01:49:19.287Z,8.08
2023-05-19T01:51:47.016Z,8.07
2023-05-19T01:54:14.753Z,8.08
2023-05-19T01:56:47.271Z,8.17
2023-05-19T01:59:29.941Z,7.94
2023-05-19T02:01:59.674Z,8.03
2023-05-19T02:04:39.975Z,7.97
2023-05-19T02:07:13.417Z,7.96
2023-05-19T02:09:46.120Z,7.99
2023-05-19T02:12:20.815Z,7.99
2023-05-19T02:14:51.753Z,8.03
2023-05-19T02:17:19.735Z,7.99
2023-05-19T02:19:48.950Z,7.94
2023-05-19T02:22:16.690Z,7.90
2023-05-19T02:24:46.500Z,7.90
2023-05-19T02:27:14.412Z,7.85
2023-05-19T02:29:42.195Z,7.74
2023-05-19T02:32:10.330Z,7.76
2023-05-19T02:34:38.269Z,7.73
2023-05-19T02:37:07.825Z,7.76
2023-05-19T02:39:35.897Z,7.85
2023-05-19T02:42:04.049Z,7.76
2023-05-19T02:44:31.772Z,7.70
2023-05-19T02:46:59.548Z,7.67
2023-05-19T02:49:27.386Z,7.79
2023-05-19T02:51:55.128Z,7.69
2023-05-19T02:54:24.217Z,7.58
2023-05-19T02:56:51.922Z,7.45
2023-05-19T02:59:19.931Z,7.52
2023-05-19T03:01:47.778Z,7.52
2023-05-19T03:04:15.519Z,7.44
2023-05-19T03:06:45.544Z,7.55
2023-05-19T03:09:13.711Z,7.54
2023-05-19T03:11:43.026Z,7.60
2023-05-19T03:14:10.770Z,7.59
2023-05-19T03:16:41.221Z,7.52
2023-05-19T03:19:09.651Z,7.52
2023-05-19T03:21:37.556Z,7.60
2023-05-19T03:24:05.665Z,7.47
2023-05-19T03:26:33.606Z,7.57
2023-05-19T03:29:02.659Z,7.39
2023-05-19T03:31:30.567Z,7.43
2023-05-19T03:33:58.387Z,7.55
2023-05-19T03:36:26.247Z,7.46
2023-05-19T03:38:53.983Z,7.48
2023-05-19T03:41:21.683Z,7.50
2023-05-19T03:43:49.420Z,7.49
2023-05-19T03:46:18.551Z,7.52
2023-05-19T03:48:46.406Z,7.59
2023-05-19T03:51:14.121Z,7.61
2023-05-19T03:53:42.477Z,7.66
2023-05-19T03:56:11.711Z,7.72
2023-05-19T03:59:35.418Z,7.58
2023-05-19T04:02:03.108Z,7.60
2023-05-19T04:04:31.490Z,7.71
2023-05-19T04:06:59.226Z,7.87
2023-05-19T04:09:26.993Z,7.75
2023-05-19T04:11:54.737Z,7.89
2023-05-19T04:14:22.436Z,8.03
2023-05-19T04:16:51.534Z,8.00
2023-05-19T04:19:19.515Z,8.02
2023-05-19T04:21:47.331Z,8.23
2023-05-19T04:24:15.026Z,8.32
2023-05-19T04:26:46.057Z,8.60
2023-05-19T04:29:13.881Z,8.64
2023-05-19T04:31:42.144Z,8.50
2023-05-19T04:34:11.467Z,8.48
2023-05-19T04:36:39.223Z,8.42
2023-05-19T04:39:09.384Z,8.51
2023-05-19T04:41:40.392Z,8.40
2023-05-19T04:44:09.122Z,8.79
2023-05-19T04:46:36.922Z,8.78
2023-05-19T04:49:04.761Z,8.74
2023-05-19T04:51:33.947Z,8.90
2023-05-19T04:54:01.732Z,8.86
2023-05-19T04:56:30.166Z,9.24
2023-05-19T04:58:58.011Z,9.37
2023-05-19T05:01:26.161Z,9.64
2023-05-19T05:03:55.242Z,9.91
2023-05-19T05:06:23.073Z,10.52
2023-05-19T05:08:52.707Z,11.14
2023-05-19T05:11:20.932Z,12.19
2023-05-19T05:13:49.396Z,12.78
2023-05-19T05:16:17.834Z,11.80
2023-05-19T05:18:46.872Z,12.61
2023-05-19T05:21:15.122Z,11.31
2023-05-19T05:23:43.363Z,12.25
2023-05-19T05:26:18.696Z,12.45
2023-05-19T05:28:46.445Z,10.62
2023-05-19T05:31:14.204Z,10.58
2023-05-19T05:33:42.373Z,10.91
2023-05-19T05:36:10.373Z,12.07
2023-05-19T05:38:38.050Z,12.60
2023-05-19T05:41:05.914Z,12.64
2023-05-19T05:43:34.971Z,12.26
2023-05-19T05:46:02.737Z,13.28
2023-05-19T05:48:31.022Z,11.14
2023-05-19T05:50:59.071Z,11.67
2023-05-19T05:53:27.850Z,11.65
2023-05-19T05:55:56.199Z,13.08
2023-05-19T05:58:24.348Z,12.96
2023-05-19T06:00:57.130Z,11.67
2023-05-19T06:03:25.245Z,12.82
2023-05-19T06:05:53.106Z,12.39
2023-05-19T06:08:20.899Z,12.14
2023-05-19T06:10:48.616Z,11.79
2023-05-19T06:13:22.207Z,11.16
2023-05-19T06:15:50.022Z,10.98
2023-05-19T06:18:19.138Z,11.46
2023-05-19T06:20:46.880Z,11.15
2023-05-19T06:23:14.589Z,11.65
2023-05-19T06:25:42.327Z,11.59
2023-05-19T06:28:10.172Z,11.38
2023-05-19T06:30:37.833Z,11.85
2023-05-19T06:33:05.715Z,11.97
2023-05-19T06:35:34.924Z,11.87
2023-05-19T06:38:02.696Z,11.89
2023-05-19T06:40:30.652Z,12.17
2023-05-19T06:42:58.569Z,12.29
2023-05-19T06:45:26.503Z,12.74
2023-05-19T06:47:54.770Z,12.83
2023-05-19T06:50:22.572Z,12.69
2023-05-19T06:52:51.686Z,12.44
2023-05-19T06:55:19.426Z,12.75
2023-05-19T06:57:47.147Z,13.04
2023-05-19T07:00:18.715Z,13.32
2023-05-19T07:02:47.714Z,13.41
2023-05-19T07:05:15.774Z,13.33
2023-05-19T07:07:44.047Z,13.06
2023-05-19T07:10:13.303Z,13.05
2023-05-19T07:12:41.073Z,12.63
2023-05-19T07:15:09.263Z,12.69
2023-05-19T07:17:37.028Z,12.86
2023-05-19T07:20:06.744Z,12.85
2023-05-19T07:22:35.103Z,13.09
2023-05-19T07:25:02.854Z,12.87
2023-05-19T07:27:31.996Z,13.25
2023-05-19T07:29:59.954Z,13.55
2023-05-19T07:32:27.696Z,13.32
2023-05-19T07:34:55.813Z,13.11
2023-05-19T07:37:23.587Z,13.66
2023-05-19T07:39:51.277Z,13.39
2023-05-19T07:42:19.036Z,13.65
2023-05-19T07:44:48.113Z,14.15
2023-05-19T07:47:15.856Z,13.82
2023-05-19T07:49:43.599Z,13.95
2023-05-19T07:52:11.287Z,14.36
2023-05-19T07:54:39.006Z,13.96
2023-05-19T07:57:07.306Z,13.99
2023-05-19T07:59:35.053Z,14.09
2023-05-19T08:02:04.242Z,14.19
2023-05-19T08:04:32.114Z,14.03
2023-05-19T08:06:59.889Z,13.96
2023-05-19T08:09:27.606Z,14.34
2023-05-19T08:11:55.931Z,14.46
2023-05-19T08:14:23.671Z,14.01
2023-05-19T08:16:51.755Z,14.54
2023-05-19T08:19:21.084Z,14.67
2023-05-19T08:21:49.701Z,14.67
2023-05-19T08:24:17.432Z,14.51
2023-05-19T08:26:45.540Z,14.96
2023-05-19T08:29:13.263Z,14.91
2023-05-19T08:31:41.124Z,14.87
2023-05-19T08:34:09.363Z,15.15
2023-05-19T08:36:39.025Z,15.09
2023-05-19T08:39:06.938Z,15.20
2023-05-19T08:41:34.696Z,15.01
2023-05-19T08:44:02.415Z,14.96
2023-05-19T08:46:30.797Z,15.37
2023-05-19T08:49:00.835Z,15.45
2023-05-19T08:51:33.707Z,15.40
2023-05-19T08:54:09.128Z,15.76
2023-05-19T08:56:37.220Z,16.02
2023-05-19T08:59:05.263Z,15.55
2023-05-19T09:01:33.394Z,15.90
2023-05-19T09:04:01.271Z,15.82
2023-05-19T09:06:32.362Z,16.18
2023-05-19T09:09:00.123Z,15.39
2023-05-19T09:11:29.348Z,15.69
2023-05-19T09:13:57.038Z,15.69
2023-05-19T09:16:25.961Z,15.88
2023-05-19T09:18:57.005Z,15.47
2023-05-19T09:21:33.978Z,15.72
2023-05-19T09:24:06.057Z,15.91
2023-05-19T09:26:39.954Z,16.05
2023-05-19T09:29:18.208Z,16.46
2023-05-19T09:31:50.615Z,16.57
2023-05-19T09:34:18.554Z,16.24
2023-05-19T09:36:49.386Z,16.24
2023-05-19T09:39:17.863Z,16.39
2023-05-19T09:41:47.553Z,16.81
2023-05-19T09:44:15.596Z,17.07
2023-05-19T09:46:50.415Z,17.09
2023-05-19T09:49:22.709Z,16.46
2023-05-19T09:51:52.129Z,16.17
2023-05-19T09:54:21.480Z,16.31
2023-05-19T09:56:58.602Z,16.52
2023-05-19T09:59:29.769Z,16.91
2023-05-19T10:01:59.981Z,16.93
2023-05-19T10:04:29.464Z,16.84
2023-05-19T10:06:59.438Z,17.24
2023-05-19T10:09:28.224Z,16.71
2023-05-19T10:11:58.488Z,17.14
2023-05-19T10:14:27.674Z,17.42
2023-05-19T10:16:56.633Z,18.06
2023-05-19T10:19:26.171Z,18.45
2023-05-19T10:21:54.403Z,17.63
2023-05-19T10:24:22.358Z,18.50
2023-05-19T10:26:53.018Z,18.17
2023-05-19T10:29:24.303Z,18.31
2023-05-19T10:31:53.334Z,18.47
2023-05-19T10:34:51.411Z,18.58
2023-05-19T10:37:28.877Z,18.23
2023-05-19T10:39:56.707Z,17.80
2023-05-19T10:42:32.649Z,17.84
2023-05-19T10:45:06.889Z,17.65
2023-05-19T10:47:35.075Z,17.76
2023-05-19T10:50:02.825Z,17.75
2023-05-19T10:52:32.864Z,17.41
2023-05-19T10:55:02.201Z,17.05
2023-05-19T10:57:32.058Z,17.51
2023-05-19T11:00:00.754Z,18.27
2023-05-19T11:02:41.144Z,17.90
2023-05-19T11:05:10.698Z,18.45
2023-05-19T11:07:38.664Z,19.31
2023-05-19T11:10:10.057Z,19.06
2023-05-19T11:12:43.409Z,19.11
2023-05-19T11:15:15.562Z,20.18
2023-05-19T11:17:49.672Z,18.90
2023-05-19T11:20:24.601Z,18.86
2023-05-19T11:23:08.515Z,18.46
2023-05-19T11:25:43.914Z,18.23
2023-05-19T11:28:13.142Z,17.56
2023-05-19T11:30:43.359Z,18.22
2023-05-19T11:33:13.415Z,18.55
2023-05-19T11:35:41.333Z,18.44
2023-05-19T11:38:09.095Z,18.15
2023-05-19T11:40:37.681Z,17.85
2023-05-19T11:43:05.399Z,17.45
2023-05-19T11:45:34.230Z,18.19
2023-05-19T11:48:03.569Z,18.69
2023-05-19T11:50:33.618Z,19.08
2023-05-19T11:53:02.113Z,18.64
2023-05-19T11:55:30.980Z,18.10
2023-05-19T12:00:31.141Z,18.48
2023-05-19T12:02:59.234Z,18.90
2023-05-19T12:05:28.226Z,19.04
2023-05-19T12:07:57.400Z,19.69
2023-05-19T12:10:25.625Z,19.52
2023-05-19T12:12:54.226Z,18.62
2023-05-19T12:15:22.735Z,18.09
2023-05-19T12:17:51.287Z,18.40
2023-05-19T12:20:19.422Z,17.98
2023-05-19T12:22:47.475Z,18.26
2023-05-19T12:25:17.020Z,18.12
2023-05-19T12:27:45.503Z,18.32
2023-05-19T12:30:13.829Z,18.76
2023-05-19T12:32:41.641Z,18.81
2023-05-19T12:35:10.535Z,19.11
2023-05-19T12:37:41.728Z,19.10
2023-05-19T12:40:10.934Z,19.42
2023-05-19T12:42:45.939Z,19.25
2023-05-19T12:45:13.969Z,19.37
2023-05-19T12:47:41.716Z,20.21
2023-05-19T12:50:10.885Z,20.15
2023-05-19T12:52:43.175Z,21.14
2023-05-19T12:55:12.204Z,19.58
2023-05-19T12:57:43.023Z,18.58
2023-05-19T13:00:17.526Z,18.64
2023-05-19T13:02:59.332Z,18.57
2023-05-19T13:05:28.244Z,18.90
2023-05-19T13:07:59.976Z,18.57
2023-05-19T13:10:29.580Z,18.47
2023-05-19T13:13:00.195Z,18.60
2023-05-19T13:15:29.556Z,19.27
2023-05-19T13:17:57.262Z,20.72
2023-05-19T13:20:27.617Z,21.48
2023-05-19T13:22:56.961Z,20.48
2023-05-19T13:25:24.680Z,20.50
2023-05-19T13:27:52.395Z,19.65
2023-05-19T13:30:22.734Z,19.41
2023-05-19T13:32:52.471Z,19.19
2023-05-19T13:35:20.943Z,19.48
2023-05-19T13:37:48.959Z,19.53
2023-05-19T13:40:17.576Z,19.70
2023-05-19T13:42:45.349Z,19.75
2023-05-19T13:45:13.229Z,19.71
2023-05-19T13:47:42.379Z,20.33
2023-05-19T13:50:10.571Z,20.14
2023-05-19T13:52:38.319Z,20.29
2023-05-19T13:55:08.113Z,20.61
2023-05-19T13:57:36.952Z,20.56
2023-05-19T14:00:05.944Z,20.03
2023-05-19T14:02:34.409Z,19.56
2023-05-19T14:05:03.580Z,19.97
2023-05-19T14:07:31.732Z,19.66
2023-05-19T14:09:59.463Z,19.90
2023-05-19T14:12:36.386Z,19.67
2023-05-19T14:15:11.921Z,20.13
2023-05-19T14:17:39.661Z,20.41
2023-05-19T14:20:09.975Z,20.74
2023-05-19T14:22:37.669Z,21.17
2023-05-19T14:25:05.874Z,21.51
2023-05-19T14:27:33.679Z,21.93
2023-05-19T14:30:01.455Z,21.45
2023-05-19T14:32:30.401Z,21.45
2023-05-19T14:34:58.465Z,21.59
2023-05-19T14:37:28.968Z,21.40
2023-05-19T14:39:57.972Z,21.33
2023-05-19T14:42:25.913Z,20.26
2023-05-19T14:44:53.700Z,20.12
2023-05-19T14:47:21.475Z,19.41
2023-05-19T14:49:49.475Z,19.21
2023-05-19T14:52:17.889Z,19.50
2023-05-19T14:54:46.994Z,19.23
2023-05-19T14:57:14.754Z,19.62
2023-05-19T14:59:42.553Z,19.76
2023-05-19T15:02:11.901Z,19.23
2023-05-19T15:04:39.628Z,19.55
2023-05-19T15:07:10.106Z,19.72
2023-05-19T15:09:38.293Z,19.88
2023-05-19T15:12:07.491Z,19.62
2023-05-19T15:14:35.256Z,20.35
2023-05-19T15:17:03.036Z,20.66
2023-05-19T15:19:30.870Z,20.46
2023-05-19T15:21:58.605Z,19.80
2023-05-19T15:24:26.574Z,20.27
2023-05-19T15:26:55.415Z,19.81
2023-05-19T15:29:24.637Z,20.21
2023-05-19T15:31:52.599Z,20.48
2023-05-19T15:34:20.545Z,20.45
2023-05-19T15:36:48.612Z,20.26
2023-05-19T15:39:16.410Z,20.23
2023-05-19T15:41:44.108Z,20.39
2023-05-19T15:44:11.868Z,19.98
2023-05-19T15:46:41.143Z,19.90
2023-05-19T15:49:09.150Z,19.56
2023-05-19T15:51:40.887Z,19.68
2023-05-19T15:54:08.597Z,19.78
2023-05-19T15:56:36.384Z,19.05
2023-05-19T15:59:04.169Z,19.37
2023-05-19T16:01:31.899Z,19.65
2023-05-19T16:04:03.653Z,20.11
2023-05-19T16:06:31.697Z,19.53
2023-05-19T16:08:59.440Z,19.66
2023-05-19T16:11:27.312Z,20.50
2023-05-19T16:13:55.049Z,20.60
2023-05-19T16:16:22.806Z,20.30
2023-05-19T16:18:50.603Z,20.02
2023-05-19T16:21:19.771Z,20.01
2023-05-19T16:23:47.616Z,19.45
2023-05-19T16:26:15.371Z,19.79
2023-05-19T16:28:43.058Z,20.22
2023-05-19T16:31:10.858Z,19.48
2023-05-19T16:33:38.628Z,19.26
2023-05-19T16:36:06.810Z,18.98
2023-05-19T16:38:35.972Z,19.24
2023-05-19T16:41:05.267Z,19.32
2023-05-19T16:43:34.350Z,19.53
2023-05-19T16:46:03.528Z,19.86
2023-05-19T16:48:31.422Z,20.48
2023-05-19T16:50:59.494Z,20.25
2023-05-19T16:53:27.308Z,19.62
2023-05-19T16:55:56.498Z,19.40
2023-05-19T16:58:24.283Z,19.22
2023-05-19T17:00:52.764Z,19.10
2023-05-19T17:03:21.057Z,19.39
2023-05-19T17:05:49.410Z,19.46
2023-05-19T17:08:17.178Z,19.76
2023-05-19T17:10:45.377Z,20.02
2023-05-19T17:13:14.510Z,19.83
2023-05-19T17:15:43.483Z,19.70
2023-05-19T17:18:12.607Z,19.29
2023-05-19T17:20:41.595Z,19.54
2023-05-19T17:23:09.358Z,19.44
2023-05-19T17:25:37.240Z,18.97
2023-05-19T17:28:05.187Z,19.03
2023-05-19T17:30:34.637Z,18.72
2023-05-19T17:33:02.632Z,18.83
2023-05-19T17:35:30.348Z,18.90
2023-05-19T17:37:58.572Z,18.94
2023-05-19T17:40:26.808Z,18.76
2023-05-19T17:42:54.958Z,18.75
2023-05-19T17:45:22.724Z,18.67
2023-05-19T17:47:51.830Z,18.70
2023-05-19T17:50:19.581Z,18.70
2023-05-19T17:52:47.861Z,18.71
2023-05-19T17:55:16.155Z,18.61
2023-05-19T17:57:44.956Z,18.34
2023-05-19T18:00:13.750Z,18.33
2023-05-19T18:02:42.006Z,18.64
2023-05-19T18:05:12.968Z,18.58
2023-05-19T18:07:41.232Z,18.65
2023-05-19T18:10:11.065Z,18.73
2023-05-19T18:12:38.826Z,18.84
2023-05-19T18:15:07.564Z,18.73
2023-05-19T18:17:35.517Z,18.55
2023-05-19T18:20:03.449Z,18.26
2023-05-19T18:22:32.625Z,18.50
2023-05-19T18:25:00.301Z,18.26
2023-05-19T18:27:28.517Z,18.03
2023-05-19T18:29:56.210Z,18.19
2023-05-19T18:32:23.951Z,18.04
2023-05-19T18:34:52.062Z,17.76
2023-05-19T18:37:19.808Z,17.81
2023-05-19T18:39:49.004Z,17.72
2023-05-19T18:42:16.741Z,17.73
2023-05-19T18:44:46.751Z,17.80
2023-05-19T18:47:14.906Z,17.55
2023-05-19T18:49:43.151Z,17.62
2023-05-19T18:52:11.093Z,17.68
2023-05-19T18:54:40.557Z,17.48
2023-05-19T18:57:09.883Z,17.44
2023-05-19T18:59:37.661Z,17.53
2023-05-19T19:02:05.736Z,17.67
2023-05-19T19:04:34.463Z,17.41
2023-05-19T19:07:02.273Z,17.54
2023-05-19T19:09:30.027Z,17.33
2023-05-19T19:11:57.739Z,17.29
2023-05-19T19:14:26.914Z,16.82
2023-05-19T19:16:54.713Z,16.61
2023-05-19T19:19:23.724Z,16.56
2023-05-19T19:21:51.646Z,16.48
2023-05-19T19:24:19.402Z,16.57
2023-05-19T19:26:47.063Z,16.42
2023-05-19T19:29:16.695Z,16.50
2023-05-19T19:31:45.961Z,16.49
2023-05-19T19:34:13.768Z,16.24
2023-05-19T19:36:41.447Z,16.34
2023-05-19T19:39:09.473Z,16.11
2023-05-19T19:41:37.580Z,15.97
2023-05-19T19:44:05.770Z,16.03
2023-05-19T19:46:33.538Z,16.06
2023-05-19T19:49:02.621Z,16.04
2023-05-19T19:51:31.442Z,15.85
2023-05-19T19:53:59.471Z,15.90
2023-05-19T19:56:27.658Z,15.82
2023-05-19T19:58:56.822Z,15.81
2023-05-19T20:01:27.595Z,15.92
2023-05-19T20:03:55.890Z,15.57
2023-05-19T20:06:25.176Z,15.76
2023-05-19T20:08:52.928Z,15.71
2023-05-19T20:11:22.803Z,15.58
2023-05-19T20:13:50.577Z,15.55
2023-05-19T20:16:18.325Z,15.38
2023-05-19T20:18:46.223Z,15.24
2023-05-19T20:21:14.015Z,15.25
2023-05-19T20:23:43.102Z,15.46
2023-05-19T20:26:13.068Z,15.04
2023-05-19T20:28:41.545Z,15.08
2023-05-19T20:31:09.554Z,14.93
2023-05-19T20:33:37.290Z,14.86
2023-05-19T20:36:06.352Z,15.20
2023-05-19T20:38:34.063Z,15.03
2023-05-19T20:41:03.917Z,14.92
2023-05-19T20:43:32.997Z,14.91
2023-05-19T20:46:01.383Z,14.85
2023-05-19T20:48:29.262Z,14.70
2023-05-19T20:50:57.096Z,14.45
2023-05-19T20:53:24.925Z,14.51
2023-05-19T20:55:53.401Z,14.36
2023-05-19T20:58:22.492Z,14.46
2023-05-19T21:00:57.588Z,14.48
2023-05-19T21:03:26.756Z,14.41
2023-05-19T21:05:54.716Z,14.35
2023-05-19T21:08:22.416Z,14.18
2023-05-19T21:10:50.127Z,14.52
2023-05-19T21:13:18.659Z,14.25
2023-05-19T21:15:47.770Z,14.11
2023-05-19T21:18:15.592Z,14.24
2023-05-19T21:20:43.371Z,14.20
2023-05-19T21:23:11.159Z,14.06
2023-05-19T21:25:40.892Z,14.13
2023-05-19T21:28:08.605Z,13.95
2023-05-19T21:30:36.446Z,13.99
2023-05-19T21:33:05.691Z,13.93
2023-05-19T21:35:33.432Z,13.94
2023-05-19T21:38:12.007Z,13.95
2023-05-19T21:40:43.629Z,13.92
2023-05-19T21:43:12.641Z,13.88
2023-05-19T21:45:40.792Z,13.59
2023-05-19T21:48:09.909Z,13.92
2023-05-19T21:50:38.297Z,13.69
2023-05-19T21:53:06.215Z,13.72
2023-05-19T21:55:34.034Z,13.60
2023-05-19T21:58:02.758Z,13.45
2023-05-19T22:00:30.663Z,13.45
2023-05-19T22:02:58.934Z,13.14
2023-05-19T22:05:30.186Z,13.12
2023-05-19T22:07:58.063Z,13.09
2023-05-19T22:10:25.829Z,12.85
2023-05-19T22:12:53.571Z,13.00
2023-05-19T22:15:21.520Z,12.77
2023-05-19T22:17:49.210Z,12.87
2023-05-19T22:20:17.309Z,12.88
2023-05-19T22:22:46.384Z,12.80
2023-05-19T22:25:14.075Z,12.72
2023-05-19T22:27:41.776Z,12.78
2023-05-19T22:30:09.853Z,12.77
2023-05-19T22:32:37.629Z,12.76
2023-05-19T22:35:06.560Z,12.77
2023-05-19T22:37:34.480Z,12.83
2023-05-19T22:40:03.584Z,12.74
2023-05-19T22:42:31.434Z,12.69
2023-05-19T22:44:59.164Z,12.70
2023-05-19T22:47:26.985Z,12.72
2023-05-19T22:49:55.657Z,12.58
2023-05-19T22:52:24.863Z,12.67
2023-05-19T22:54:52.557Z,12.62
2023-05-19T22:57:21.700Z,12.62
2023-05-19T22:59:49.482Z,12.64
2023-05-19T23:02:17.168Z,12.73
2023-05-19T23:04:44.940Z,12.62
2023-05-19T23:07:12.655Z,12.61
2023-05-19T23:09:40.372Z,12.64
2023-05-19T23:12:08.090Z,12.71
2023-05-19T23:14:37.180Z,12.77
2023-05-19T23:17:05.181Z,12.60
2023-05-19T23:19:34.806Z,12.74
2023-05-19T23:22:02.526Z,12.72
2023-05-19T23:24:30.225Z,12.57
2023-05-19T23:26:57.989Z,12.48
2023-05-19T23:29:25.698Z,12.50
2023-05-19T23:31:54.860Z,12.60
2023-05-19T23:34:22.641Z,12.46
2023-05-19T23:36:50.371Z,12.45
2023-05-19T23:39:18.106Z,12.53
2023-05-19T23:41:46.109Z,12.59
2023-05-19T23:44:13.789Z,12.53
2023-05-19T23:46:41.955Z,12.39
2023-05-19T23:49:11.093Z,12.48
2023-05-19T23:51:38.830Z,12.54
2023-05-19T23:54:06.590Z,12.53
2023-05-19T23:56:34.338Z,12.44
2023-05-19T23:59:02.024Z,12.53
